Time;durP1;ratioP1;P1;durP2;ratioP2;P2;SDS_P1;SDS_P2;PMS_P1;PMS_P2;Temp;Humidity;BMP_temperature;BMP_pressure;BME280_temperature;BME280_humidity;BME280_pressure;Samples;Min_cycle;Max_cycle;Signal;HPM_P1;HPM_P2
2021/07/24 00:00:17;;;;;;;;;;;;;;;18.69;68.22;98922.33;1873413;76;20093;-60
2021/07/24 00:03:11;;;;;;;;;;;;;;;18.61;68.77;98926.42;1892785;76;20097;-61
2021/07/24 00:05:46;;;;;;;;;;;;;;;18.55;69.07;98924.81;1892716;76;20204;-61
2021/07/24 00:08:22;;;;;;;;;;;;;;;18.51;69.34;98928.38;1873237;76;20359;-62
2021/07/24 00:10:56;;;;;;;;;;;;;;;18.47;69.78;98927.16;1873429;76;20351;-61
2021/07/24 00:13:32;;;;;;;;;;;;;;;18.42;70.20;98935.98;1837721;77;20100;-61
2021/07/24 00:16:27;;;;;;;;;;;;;;;18.36;70.74;98934.78;1873257;76;20102;-62
2021/07/24 00:19:03;;;;;;;;;;;;;;;18.29;70.70;98934.94;1873173;76;20101;-61
2021/07/24 00:21:37;;;;;;;;;;;;;;;18.23;70.95;98932.02;1853556;77;20091;-61
2021/07/24 00:24:13;;;;;;;;;;;;;;;18.18;71.17;98936.48;1873253;76;20097;-61
2021/07/24 00:26:48;;;;;;;;;;;;;;;18.14;71.64;98937.42;1873430;76;20216;-62
2021/07/24 00:29:22;;;;;;;;;;;;;;;18.07;72.02;98935.84;1837900;77;20104;-61
2021/07/24 00:31:57;;;;;;;;;;;;;;;18.00;72.16;98938.56;1892736;76;20351;-62
2021/07/24 00:34:35;;;;;;;;;;;;;;;17.98;72.48;98937.72;1873368;76;20435;-61
2021/07/24 00:37:10;;;;;;;;;;;;;;;17.96;72.52;98939.95;1873347;76;20200;-62
2021/07/24 00:39:51;;;;;;;;;;;;;;;17.93;72.70;98936.09;1872547;76;20176;-61
2021/07/24 00:42:27;;;;;;;;;;;;;;;17.91;72.71;98939.17;1873419;76;20098;-62
2021/07/24 00:45:22;;;;;;;;;;;;;;;17.90;72.94;98936.16;1873321;76;20287;-62
2021/07/24 00:47:57;;;;;;;;;;;;;;;17.88;73.14;98936.18;1873408;76;20204;-62
2021/07/24 00:50:38;;;;;;;;;;;;;;;17.87;73.31;98932.31;1872544;76;20209;-62
2021/07/24 00:53:36;;;;;;;;;;;;;;;17.83;73.43;98936.71;1873280;76;20098;-63
2021/07/24 00:56:30;;;;;;;;;;;;;;;17.80;73.51;98934.16;1873459;76;20204;-64
2021/07/24 00:59:06;;;;;;;;;;;;;;;17.79;73.43;98929.81;1873305;76;20204;-63
2021/07/24 01:01:59;;;;;;;;;;;;;;;17.76;73.31;98928.13;1873385;76;20455;-61
2021/07/24 01:04:34;;;;;;;;;;;;;;;17.75;73.46;98934.22;1873499;76;20212;-63
2021/07/24 01:07:10;;;;;;;;;;;;;;;17.72;73.65;98936.89;1892659;76;20101;-61
2021/07/24 01:09:46;;;;;;;;;;;;;;;17.66;73.82;98934.86;1873305;76;20156;-62
2021/07/24 01:12:21;;;;;;;;;;;;;;;17.60;73.89;98931.89;1873361;76;20094;-63
2021/07/24 01:14:58;;;;;;;;;;;;;;;17.53;74.33;98931.16;1873417;76;20443;-62
2021/07/24 01:17:35;;;;;;;;;;;;;;;17.48;74.86;98935.59;1873439;76;20209;-61
2021/07/24 01:20:13;;;;;;;;;;;;;;;17.45;74.93;98932.16;1873203;76;20097;-63
2021/07/24 01:23:12;;;;;;;;;;;;;;;17.39;74.90;98934.44;1892721;76;20097;-62
2021/07/24 01:26:07;;;;;;;;;;;;;;;17.38;75.25;98930.12;1873442;76;20093;-62
2021/07/24 01:28:43;;;;;;;;;;;;;;;17.34;75.45;98931.05;1873157;76;20097;-61
2021/07/24 01:31:18;;;;;;;;;;;;;;;17.27;75.52;98932.03;1873355;76;20098;-62
2021/07/24 01:34:15;;;;;;;;;;;;;;;17.24;75.70;98930.33;1873148;76;20101;-61
2021/07/24 01:36:49;;;;;;;;;;;;;;;17.23;75.33;98927.77;1873410;76;20212;-62
2021/07/24 01:39:25;;;;;;;;;;;;;;;17.26;75.20;98931.63;1873439;76;20097;-63
2021/07/24 01:42:00;;;;;;;;;;;;;;;17.29;75.03;98928.51;1873443;76;20208;-63
2021/07/24 01:44:34;;;;;;;;;;;;;;;17.33;75.03;98929.34;1892847;76;20339;-63
2021/07/24 01:47:36;;;;;;;;;;;;;;;17.37;74.86;98934.90;1872507;76;20208;-62
2021/07/24 01:53:32;;;;;;;;;;;;;;;17.42;74.58;98929.16;1872671;76;20208;-60
2021/07/24 01:56:11;;;;;;;;;;;;;;;17.44;74.32;98931.75;1892759;76;20339;-62
2021/07/24 01:58:51;;;;;;;;;;;;;;;17.44;74.42;98931.30;1892706;76;20461;-63
2021/07/24 02:01:46;;;;;;;;;;;;;;;17.40;74.79;98934.84;1892657;76;20097;-61
2021/07/24 02:04:22;;;;;;;;;;;;;;;17.35;75.05;98937.55;1873399;76;20208;-62
2021/07/24 02:06:57;;;;;;;;;;;;;;;17.28;75.47;98929.86;1870878;76;20109;-59
2021/07/24 02:09:52;;;;;;;;;;;;;;;17.21;75.66;98934.75;1873246;76;20348;-63
2021/07/24 02:12:27;;;;;;;;;;;;;;;17.17;75.84;98931.77;1873160;76;20463;-61
2021/07/24 02:15:03;;;;;;;;;;;;;;;17.13;75.91;98935.73;1873411;76;20351;-62
2021/07/24 02:18:05;;;;;;;;;;;;;;;17.14;75.71;98928.31;1872632;76;20455;-63
2021/07/24 02:20:41;;;;;;;;;;;;;;;17.21;75.65;98924.32;1873456;76;20208;-63
2021/07/24 02:23:35;;;;;;;;;;;;;;;17.26;75.26;98924.66;1873299;76;20101;-63
2021/07/24 02:26:17;;;;;;;;;;;;;;;17.29;75.30;98929.81;1892613;76;20113;-61
2021/07/24 02:28:52;;;;;;;;;;;;;;;17.27;75.58;98925.51;1892320;76;20096;-61
2021/07/24 02:31:26;;;;;;;;;;;;;;;17.27;75.84;98928.97;1892737;76;20097;-61
2021/07/24 02:34:02;;;;;;;;;;;;;;;17.22;76.00;98934.70;1892694;76;20096;-63
2021/07/24 02:36:43;;;;;;;;;;;;;;;17.16;76.51;98935.27;1872601;76;20204;-63
2021/07/24 02:39:17;;;;;;;;;;;;;;;17.12;76.62;98931.41;1892736;76;20207;-62
2021/07/24 02:41:52;;;;;;;;;;;;;;;17.11;76.77;98936.64;1892709;76;20096;-62
2021/07/24 02:44:26;;;;;;;;;;;;;;;17.04;77.25;98931.95;1892737;76;20207;-63
2021/07/24 02:47:01;;;;;;;;;;;;;;;17.01;77.50;98935.92;1892820;76;20211;-62
2021/07/24 02:49:35;;;;;;;;;;;;;;;17.02;77.57;98937.66;1892691;76;20343;-62
2021/07/24 02:52:30;;;;;;;;;;;;;;;17.05;77.57;98939.36;1873438;76;20212;-61
2021/07/24 02:55:07;;;;;;;;;;;;;;;17.03;77.79;98941.98;1892719;76;20203;-62
2021/07/24 02:57:41;;;;;;;;;;;;;;;16.97;77.93;98947.30;1873397;76;20208;-63
2021/07/24 03:00:16;;;;;;;;;;;;;;;17.00;77.58;98944.64;1873438;76;20094;-63
2021/07/24 03:03:16;;;;;;;;;;;;;;;17.06;77.42;98946.28;1892660;76;20097;-61
2021/07/24 03:05:51;;;;;;;;;;;;;;;17.10;77.29;98941.00;1873419;76;20355;-62
2021/07/24 03:08:25;;;;;;;;;;;;;;;17.14;76.75;98945.27;1873414;76;20208;-62
2021/07/24 03:11:06;;;;;;;;;;;;;;;17.19;76.61;98946.95;1892662;76;20101;-61
2021/07/24 03:13:40;;;;;;;;;;;;;;;17.22;76.38;98944.28;1892745;76;20187;-62
2021/07/24 03:16:15;;;;;;;;;;;;;;;17.25;76.13;98946.84;1873398;76;20101;-62
2021/07/24 03:18:51;;;;;;;;;;;;;;;17.29;76.09;98945.46;1892723;76;20093;-62
2021/07/24 03:21:45;;;;;;;;;;;;;;;17.33;75.98;98951.06;1892661;76;20215;-63
2021/07/24 03:24:25;;;;;;;;;;;;;;;17.38;75.87;98948.38;1872549;76;20097;-62
2021/07/24 03:27:00;;;;;;;;;;;;;;;17.44;75.41;98953.48;1892731;76;20093;-62
2021/07/24 03:29:35;;;;;;;;;;;;;;;17.50;74.83;98953.39;1892748;76;20093;-63
2021/07/24 03:32:29;;;;;;;;;;;;;;;17.57;74.30;98961.95;1878591;75;20135;-61
2021/07/24 03:35:07;;;;;;;;;;;;;;;17.63;74.10;98958.38;1873406;76;20208;-64
2021/07/24 03:38:05;;;;;;;;;;;;;;;17.68;73.38;98959.15;1873349;76;20101;-62
2021/07/24 03:41:01;;;;;;;;;;;;;;;17.74;73.10;98957.30;1892675;76;20354;-61
2021/07/24 03:43:36;;;;;;;;;;;;;;;17.80;72.81;98961.58;1873341;76;20093;-62
2021/07/24 03:46:15;;;;;;;;;;;;;;;17.85;72.40;98958.44;1892739;76;20088;-62
2021/07/24 03:48:50;;;;;;;;;;;;;;;17.91;72.22;98954.84;1873443;76;20093;-62
2021/07/24 03:51:24;;;;;;;;;;;;;;;17.99;71.74;98963.41;1873431;76;20205;-64
2021/07/24 03:54:08;;;;;;;;;;;;;;;18.05;71.26;98963.73;1872547;76;20216;-63
2021/07/24 03:56:43;;;;;;;;;;;;;;;18.12;70.94;98966.66;1873331;76;20089;-62
2021/07/24 03:59:17;;;;;;;;;;;;;;;18.23;70.55;98962.06;1873404;76;20097;-62
2021/07/24 04:01:54;;;;;;;;;;;;;;;18.34;70.07;98969.25;1873522;76;20094;-63
2021/07/24 04:04:51;;;;;;;;;;;;;;;18.48;69.59;98972.02;1873352;76;20212;-64
2021/07/24 04:07:44;;;;;;;;;;;;;;;18.58;69.33;98970.93;1873365;76;20212;-62
2021/07/24 04:10:18;;;;;;;;;;;;;;;18.71;68.91;98971.07;1873420;76;20220;-62
2021/07/24 04:12:53;;;;;;;;;;;;;;;18.81;68.57;98972.63;1873437;76;20093;-62
2021/07/24 04:15:27;;;;;;;;;;;;;;;18.86;68.30;98974.69;1873411;76;20093;-63
2021/07/24 04:18:05;;;;;;;;;;;;;;;18.97;67.95;98974.44;1892698;76;20096;-63
2021/07/24 04:20:40;;;;;;;;;;;;;;;19.08;67.68;98976.38;1873417;76;20475;-62
2021/07/24 04:23:17;;;;;;;;;;;;;;;19.21;67.34;98968.20;1892707;76;20097;-62
2021/07/24 04:25:51;;;;;;;;;;;;;;;19.33;66.94;98967.91;1873412;76;20212;-63
2021/07/24 04:28:25;;;;;;;;;;;;;;;19.42;66.57;98970.31;1873458;76;20347;-63
2021/07/24 04:31:00;;;;;;;;;;;;;;;19.50;66.13;98974.05;1873488;76;20347;-63
2021/07/24 04:33:34;;;;;;;;;;;;;;;19.63;65.86;98971.52;1873385;76;20351;-60
2021/07/24 04:36:13;;;;;;;;;;;;;;;19.70;65.42;98973.13;1873257;76;20097;-62
2021/07/24 04:38:47;;;;;;;;;;;;;;;19.80;65.26;98965.89;1892739;76;20093;-62
2021/07/24 04:41:22;;;;;;;;;;;;;;;19.91;64.93;98966.91;1873422;76;20212;-63
2021/07/24 04:43:57;;;;;;;;;;;;;;;19.97;64.39;98969.34;1873356;76;20098;-62
2021/07/24 04:46:31;;;;;;;;;;;;;;;20.00;64.25;98970.59;1892727;76;20147;-64
2021/07/24 04:49:07;;;;;;;;;;;;;;;20.09;64.13;98970.78;1873267;76;20094;-63
2021/07/24 04:52:02;;;;;;;;;;;;;;;20.20;64.23;98971.79;1892741;76;20215;-63
2021/07/24 04:54:58;;;;;;;;;;;;;;;20.36;63.80;98976.56;1892635;76;20208;-63
2021/07/24 04:57:34;;;;;;;;;;;;;;;20.51;63.60;98975.27;1873330;76;20098;-63
2021/07/24 05:00:13;;;;;;;;;;;;;;;20.66;63.24;98979.66;1873207;76;20347;-63
2021/07/24 05:02:48;;;;;;;;;;;;;;;20.71;62.93;98984.31;1873315;76;20148;-62
2021/07/24 05:05:24;;;;;;;;;;;;;;;20.84;62.73;98988.31;1873224;76;20097;-63
2021/07/24 05:07:59;;;;;;;;;;;;;;;20.98;61.62;98986.11;1873269;76;20348;-62
2021/07/24 05:10:35;;;;;;;;;;;;;;;21.05;61.18;98987.25;1892704;76;20391;-62
2021/07/24 05:13:16;;;;;;;;;;;;;;;21.08;60.67;98981.44;1892655;76;20382;-62
2021/07/24 05:15:52;;;;;;;;;;;;;;;21.12;60.36;98982.22;1873285;76;20355;-62
2021/07/24 05:18:27;;;;;;;;;;;;;;;21.23;60.05;98981.41;1892680;76;20143;-63
2021/07/24 05:21:03;;;;;;;;;;;;;;;21.34;58.94;98978.42;1892727;76;20101;-62
2021/07/24 05:23:38;;;;;;;;;;;;;;;21.45;59.15;98981.15;1873412;76;20212;-64
2021/07/24 05:26:14;;;;;;;;;;;;;;;21.59;58.56;98977.20;1873421;76;20094;-63
2021/07/24 05:28:49;;;;;;;;;;;;;;;21.71;57.82;98982.04;1873392;76;20097;-64
2021/07/24 05:31:25;;;;;;;;;;;;;;;21.88;57.67;98980.16;1892763;76;20358;-66
2021/07/24 05:33:59;;;;;;;;;;;;;;;22.03;57.17;98975.67;1873437;76;20208;-63
2021/07/24 05:36:35;;;;;;;;;;;;;;;22.14;56.60;98979.69;1873277;76;20093;-62
2021/07/24 05:39:13;;;;;;;;;;;;;;;22.25;56.51;98980.17;1873464;76;20204;-62
2021/07/24 05:41:48;;;;;;;;;;;;;;;22.42;56.28;98986.14;1873336;76;20356;-62
2021/07/24 05:44:22;;;;;;;;;;;;;;;22.67;55.63;98985.63;1873414;76;20094;-63
2021/07/24 05:47:01;;;;;;;;;;;;;;;23.51;53.97;98984.08;1873164;76;20101;-63
2021/07/24 05:49:37;;;;;;;;;;;;;;;25.12;50.37;98983.97;1873526;76;20259;-62
2021/07/24 05:52:12;;;;;;;;;;;;;;;26.55;46.46;98998.77;1837802;77;20453;-62
2021/07/24 05:55:07;;;;;;;;;;;;;;;28.15;43.35;98992.33;1892703;76;20101;-63
2021/07/24 05:57:41;;;;;;;;;;;;;;;29.58;40.35;99002.73;1892720;76;20208;-62
2021/07/24 06:00:36;;;;;;;;;;;;;;;30.93;38.56;99015.23;1892727;76;20147;-63
2021/07/24 06:03:11;;;;;;;;;;;;;;;32.25;35.07;99012.06;1873250;76;20097;-64
2021/07/24 06:05:45;;;;;;;;;;;;;;;33.11;34.37;99029.34;1873409;76;20094;-63
2021/07/24 06:08:26;;;;;;;;;;;;;;;34.02;31.97;99028.05;1872547;76;20093;-64
2021/07/24 06:11:04;;;;;;;;;;;;;;;34.51;31.17;99035.89;1873415;76;20436;-64
2021/07/24 06:13:39;;;;;;;;;;;;;;;35.35;30.19;99039.66;1873600;76;20097;-63
2021/07/24 06:16:32;;;;;;;;;;;;;;;36.30;28.41;99040.78;1873390;76;20212;-65
2021/07/24 06:19:06;;;;;;;;;;;;;;;36.86;27.03;99050.65;1873429;76;20208;-63
2021/07/24 06:21:43;;;;;;;;;;;;;;;36.88;27.10;99043.79;1873272;76;20151;-63
2021/07/24 06:24:18;;;;;;;;;;;;;;;36.81;27.19;99050.75;1873418;76;20097;-62
2021/07/24 06:27:11;;;;;;;;;;;;;;;36.92;27.03;99054.11;1892699;76;20100;-62
2021/07/24 06:29:45;;;;;;;;;;;;;;;37.48;26.33;99050.02;1873402;76;20216;-64
2021/07/24 06:32:26;;;;;;;;;;;;;;;37.77;26.40;99059.26;1872530;76;20294;-63
2021/07/24 06:35:00;;;;;;;;;;;;;;;38.36;25.70;99064.44;1892927;76;20093;-63
2021/07/24 06:37:34;;;;;;;;;;;;;;;38.69;24.82;99067.88;1873382;76;20291;-65
2021/07/24 06:40:11;;;;;;;;;;;;;;;38.71;24.78;99072.61;1892756;76;20347;-63
2021/07/24 06:42:45;;;;;;;;;;;;;;;38.59;25.18;99071.52;1892762;76;20203;-62
2021/07/24 06:45:22;;;;;;;;;;;;;;;39.34;24.28;99074.09;1873370;76;20094;-63
2021/07/24 06:48:15;;;;;;;;;;;;;;;40.59;22.62;99077.00;1892709;76;20211;-65
2021/07/24 06:50:50;;;;;;;;;;;;;;;40.82;22.36;99077.64;1892726;76;20204;-63
2021/07/24 06:53:24;;;;;;;;;;;;;;;40.59;22.26;99078.36;1873346;76;20451;-66
2021/07/24 06:55:59;;;;;;;;;;;;;;;40.14;22.28;99079.75;1873411;76;20097;-64
2021/07/24 06:58:35;;;;;;;;;;;;;;;39.81;22.73;99071.64;1873261;76;20093;-64
2021/07/24 07:01:10;;;;;;;;;;;;;;;39.77;23.05;99078.38;1892746;76;20215;-64
2021/07/24 07:03:44;;;;;;;;;;;;;;;40.05;22.99;99080.27;1892763;76;20462;-63
2021/07/24 07:06:19;;;;;;;;;;;;;;;40.41;22.56;99080.44;1873426;76;20212;-63
2021/07/24 07:08:53;;;;;;;;;;;;;;;41.04;21.73;99078.20;1873411;76;20208;-63
2021/07/24 07:11:28;;;;;;;;;;;;;;;41.42;21.11;99087.84;1892717;76;20096;-63
2021/07/24 07:14:04;;;;;;;;;;;;;;;40.87;21.57;99084.21;1873394;76;20097;-63
2021/07/24 07:16:39;;;;;;;;;;;;;;;40.70;21.48;99082.06;1892736;76;20310;-64
2021/07/24 07:19:11;;;;;;;;;;;;;;;40.68;21.81;99078.68;1892702;76;20461;-64
2021/07/24 07:21:46;;;;;;;;;;;;;;;41.04;21.28;99079.55;1873470;76;20102;-63
2021/07/24 07:24:20;;;;;;;;;;;;;;;41.38;21.11;99086.54;1892870;76;20097;-63
2021/07/24 07:26:55;;;;;;;;;;;;;;;41.20;21.40;99078.17;1892822;76;20200;-65
2021/07/24 07:29:29;;;;;;;;;;;;;;;41.19;21.49;99081.04;1873488;76;20208;-64
2021/07/24 07:32:05;;;;;;;;;;;;;;;41.93;20.79;99086.89;1873389;76;20208;-65
2021/07/24 07:34:58;;;;;;;;;;;;;;;41.78;20.75;99088.65;1873372;76;20275;-63
2021/07/24 07:37:33;;;;;;;;;;;;;;;42.02;20.70;99092.56;1873422;76;20132;-64
2021/07/24 07:40:08;;;;;;;;;;;;;;;42.29;20.47;99097.08;1873441;76;20093;-64
2021/07/24 07:42:43;;;;;;;;;;;;;;;42.82;19.97;99095.22;1873427;76;20098;-64
2021/07/24 07:45:37;;;;;;;;;;;;;;;43.56;19.51;99099.66;1892725;76;20358;-65
2021/07/24 07:48:12;;;;;;;;;;;;;;;44.12;18.88;99095.77;1892754;76;20097;-64
2021/07/24 07:51:11;;;;;;;;;;;;;;;44.44;18.65;99099.48;1872563;76;20212;-64
2021/07/24 07:53:45;;;;;;;;;;;;;;;44.75;18.09;99103.13;1873442;76;20208;-64
2021/07/24 07:56:20;;;;;;;;;;;;;;;44.42;18.41;99103.75;1892859;76;20211;-65
2021/07/24 07:59:00;;;;;;;;;;;;;;;44.59;18.09;99103.77;1892713;76;20096;-62
2021/07/24 08:01:35;;;;;;;;;;;;;;;44.81;17.86;99105.09;1873519;76;20204;-65
2021/07/24 08:04:09;;;;;;;;;;;;;;;44.48;17.89;99104.83;1873404;76;20205;-64
2021/07/24 08:06:44;;;;;;;;;;;;;;;43.32;18.08;99099.51;1873345;76;20230;-64
2021/07/24 08:09:22;;;;;;;;;;;;;;;41.75;19.52;99091.20;1892739;76;20257;-64
2021/07/24 08:11:56;;;;;;;;;;;;;;;41.40;20.11;99083.98;1853544;77;20206;-63
2021/07/24 08:14:30;;;;;;;;;;;;;;;41.98;19.61;99086.32;1873443;76;20352;-63
2021/07/24 08:17:07;;;;;;;;;;;;;;;42.37;19.43;99090.23;1892747;76;20101;-66
2021/07/24 08:19:42;;;;;;;;;;;;;;;42.82;19.30;99091.14;1873442;76;20205;-64
2021/07/24 08:22:36;;;;;;;;;;;;;;;43.52;18.60;99101.09;1873376;76;20197;-65
2021/07/24 08:25:11;;;;;;;;;;;;;;;43.50;17.94;99097.72;1873432;76;20212;-64
2021/07/24 08:27:45;;;;;;;;;;;;;;;41.18;19.25;99086.97;1873395;76;20101;-64
2021/07/24 08:30:20;;;;;;;;;;;;;;;39.26;21.04;99083.83;1892808;76;20203;-62
2021/07/24 08:33:14;;;;;;;;;;;;;;;38.11;22.59;99076.90;1873325;76;20471;-64
2021/07/24 08:35:48;;;;;;;;;;;;;;;38.40;22.43;99071.73;1873415;76;20295;-65
2021/07/24 08:38:43;;;;;;;;;;;;;;;38.28;22.65;99066.25;1892810;76;20096;-63
2021/07/24 08:41:17;;;;;;;;;;;;;;;37.13;23.92;99067.83;1892695;76;20351;-62
2021/07/24 08:43:53;;;;;;;;;;;;;;;36.70;23.81;99066.59;1873292;76;20348;-63
2021/07/24 08:46:27;;;;;;;;;;;;;;;36.44;24.07;99069.90;1873447;76;20351;-64
2021/07/24 08:49:02;;;;;;;;;;;;;;;36.52;24.18;99065.14;1873410;76;20351;-64
2021/07/24 08:51:57;;;;;;;;;;;;;;;36.72;23.76;99060.57;1873413;76;20209;-65
2021/07/24 08:54:33;;;;;;;;;;;;;;;36.73;24.03;99059.56;1873399;76;20098;-63
2021/07/24 08:57:07;;;;;;;;;;;;;;;36.06;24.47;99054.17;1837947;77;20210;-62
2021/07/24 08:59:45;;;;;;;;;;;;;;;35.90;25.35;99060.64;1892666;76;20101;-64
2021/07/24 09:02:24;;;;;;;;;;;;;;;35.38;24.81;99054.64;1892689;76;20211;-62
2021/07/24 09:05:04;;;;;;;;;;;;;;;34.30;26.46;99056.52;1873449;76;20347;-63
2021/07/24 09:07:44;;;;;;;;;;;;;;;33.24;27.80;99054.61;1873268;76;20093;-64
2021/07/24 09:10:20;;;;;;;;;;;;;;;33.40;28.33;99047.50;1892735;76;20101;-64
2021/07/24 09:12:56;;;;;;;;;;;;;;;34.17;27.33;99050.03;1873431;76;20451;-64
2021/07/24 09:15:32;;;;;;;;;;;;;;;34.98;26.32;99046.11;1873278;76;20347;-63
2021/07/24 09:18:06;;;;;;;;;;;;;;;35.46;25.77;99052.10;1873521;76;20204;-64
2021/07/24 09:20:47;;;;;;;;;;;;;;;35.81;24.89;99046.71;1892700;76;20101;-64
2021/07/24 09:23:28;;;;;;;;;;;;;;;35.92;24.84;99049.23;1873276;76;20343;-63
2021/07/24 09:26:31;;;;;;;;;;;;;;;36.11;24.22;99050.25;1873270;76;20097;-63
2021/07/24 09:29:19;;;;;;;;;;;;;;;35.59;25.11;99046.48;1873412;76;20212;-63
2021/07/24 09:32:12;;;;;;;;;;;;;;;34.93;24.94;99056.40;1873369;76;20451;-63
2021/07/24 09:35:07;;;;;;;;;;;;;;;33.56;26.79;99047.11;1892665;76;20096;-65
2021/07/24 09:37:42;;;;;;;;;;;;;;;32.79;27.24;99043.44;1873419;76;20208;-63
2021/07/24 09:42:59;;;;;;;;;;;;;;;31.29;29.33;99035.69;1873220;76;20101;-64
2021/07/24 09:45:34;;;;;;;;;;;;;;;30.86;30.84;99029.50;1892697;76;20097;-64
2021/07/24 09:48:15;;;;;;;;;;;;;;;30.58;31.71;99024.38;1873369;76;20102;-64
2021/07/24 09:50:51;;;;;;;;;;;;;;;30.79;31.94;99021.54;1873185;76;20093;-63
2021/07/24 09:53:45;;;;;;;;;;;;;;;31.00;31.76;99024.98;1892891;76;20092;-63
2021/07/24 09:56:43;;;;;;;;;;;;;;;31.07;31.60;99020.42;1873395;76;20451;-63
2021/07/24 09:59:30;;;;;;;;;;;;;;;30.94;31.56;99022.29;1873478;76;20336;-63
2021/07/24 10:02:22;;;;;;;;;;;;;;;30.73;31.56;99004.64;1873484;76;20204;-65
2021/07/24 10:04:57;;;;;;;;;;;;;;;30.28;32.20;99018.93;1868744;76;20205;-64
2021/07/24 10:07:51;;;;;;;;;;;;;;;29.79;33.05;99020.45;1892674;76;20347;-63
2021/07/24 10:10:26;;;;;;;;;;;;;;;29.54;33.30;99010.56;1892717;76;20092;-65
2021/07/24 10:13:02;;;;;;;;;;;;;;;29.31;34.24;99017.84;1873395;76;20451;-63
2021/07/24 10:15:40;;;;;;;;;;;;;;;29.08;34.54;99020.22;1892739;76;20096;-64
2021/07/24 10:18:15;;;;;;;;;;;;;;;29.13;34.98;99019.45;1873293;76;20097;-63
2021/07/24 10:20:51;;;;;;;;;;;;;;;29.15;34.72;99013.53;1873399;76;20097;-62
2021/07/24 10:23:25;;;;;;;;;;;;;;;29.18;35.55;99016.47;1873393;76;20204;-63
2021/07/24 10:26:13;;;;;;;;;;;;;;;29.26;35.54;99011.98;1873413;76;20216;-63
2021/07/24 10:29:00;;;;;;;;;;;;;;;29.52;34.53;99011.14;1873400;76;20204;-64
2021/07/24 10:32:11;;;;;;;;;;;;;;;29.65;34.55;99012.53;1892765;76;20203;-63
2021/07/24 10:34:53;;;;;;;;;;;;;;;29.76;33.98;99007.81;1873424;76;20343;-64
2021/07/24 10:37:46;;;;;;;;;;;;;;;29.91;34.17;99016.57;1873365;76;20204;-65
2021/07/24 10:40:40;;;;;;;;;;;;;;;30.00;33.79;99013.30;1873483;76;20102;-65
2021/07/24 10:43:58;;;;;;;;;;;;;;;29.85;33.96;99013.85;1873208;76;20101;-64
2021/07/24 10:46:45;;;;;;;;;;;;;;;29.30;34.11;99016.16;1892714;76;20318;-63
2021/07/24 10:49:35;;;;;;;;;;;;;;;28.76;35.01;99012.45;1892823;76;20204;-63
2021/07/24 10:52:45;;;;;;;;;;;;;;;28.28;35.89;99011.86;1892706;76;20375;-63
2021/07/24 10:55:39;;;;;;;;;;;;;;;27.96;36.41;99010.30;1873281;76;20184;-63
2021/07/24 10:58:17;;;;;;;;;;;;;;;27.82;37.23;99011.13;1873324;76;20097;-64
2021/07/24 11:00:54;;;;;;;;;;;;;;;27.75;36.70;99008.41;1873316;76;20343;-63
2021/07/24 11:03:35;;;;;;;;;;;;;;;27.67;37.17;99012.84;1873366;76;20212;-63
2021/07/24 11:06:25;;;;;;;;;;;;;;;27.77;37.42;99011.36;1873352;76;20212;-63
2021/07/24 11:09:15;;;;;;;;;;;;;;;27.73;36.91;99005.84;1873368;76;20098;-63
2021/07/24 11:12:11;;;;;;;;;;;;;;;27.80;37.32;99007.67;1873428;76;20093;-63
2021/07/24 11:15:06;;;;;;;;;;;;;;;28.19;37.68;99003.15;1837915;77;20211;-64
2021/07/24 11:17:41;;;;;;;;;;;;;;;28.61;36.95;99004.60;1873529;76;20094;-63
2021/07/24 11:20:24;;;;;;;;;;;;;;;28.93;36.01;99010.55;1873503;76;20351;-64
2021/07/24 11:23:04;;;;;;;;;;;;;;;29.16;36.12;99005.11;1873284;76;20097;-66
2021/07/24 11:26:01;;;;;;;;;;;;;;;29.14;36.15;99001.20;1873394;76;20348;-62
2021/07/24 11:28:40;;;;;;;;;;;;;;;28.97;36.05;99000.08;1873253;76;20168;-62
2021/07/24 11:31:34;;;;;;;;;;;;;;;28.81;36.30;99007.34;1873359;76;20454;-62
2021/07/24 11:34:29;;;;;;;;;;;;;;;28.85;36.37;99007.50;1873335;76;20102;-63
2021/07/24 11:37:04;;;;;;;;;;;;;;;29.15;36.01;99010.87;1873477;76;20097;-63
2021/07/24 11:39:58;;;;;;;;;;;;;;;29.50;35.34;99015.70;1873288;76;20204;-62
2021/07/24 11:43:01;;;;;;;;;;;;;;;29.78;35.25;99009.41;1872557;76;20208;-64
2021/07/24 11:45:38;;;;;;;;;;;;;;;29.99;34.88;99013.75;1873606;76;20209;-63
2021/07/24 11:48:18;;;;;;;;;;;;;;;30.16;34.78;99022.41;1892728;76;20211;-63
2021/07/24 11:51:01;;;;;;;;;;;;;;;30.35;34.19;99016.19;1873330;76;20094;-64
2021/07/24 11:53:56;;;;;;;;;;;;;;;30.52;34.55;99016.83;1873375;76;20151;-64
2021/07/24 11:56:50;;;;;;;;;;;;;;;30.61;33.55;99018.86;1892736;76;20096;-64
2021/07/24 11:59:30;;;;;;;;;;;;;;;30.74;33.32;99027.67;1873433;76;20212;-63
2021/07/24 12:02:07;;;;;;;;;;;;;;;30.98;32.56;99016.23;1892746;76;20093;-67
2021/07/24 12:05:00;;;;;;;;;;;;;;;31.16;32.40;99016.22;1892694;76;20354;-63
2021/07/24 12:07:36;;;;;;;;;;;;;;;31.29;31.84;99011.69;1873196;76;20093;-64
2021/07/24 12:10:11;;;;;;;;;;;;;;;31.41;31.88;99015.80;1873410;76;20208;-63
2021/07/24 12:13:27;;;;;;;;;;;;;;;31.24;31.60;99007.17;1876890;76;20157;-64
2021/07/24 12:16:05;;;;;;;;;;;;;;;30.90;32.11;99006.98;1873432;76;20458;-63
2021/07/24 12:18:51;;;;;;;;;;;;;;;31.09;31.79;99012.30;1873325;76;20097;-64
2021/07/24 12:21:32;;;;;;;;;;;;;;;31.32;31.42;99015.48;1873399;76;20094;-65
2021/07/24 12:24:08;;;;;;;;;;;;;;;31.28;31.81;99023.81;1853630;77;20096;-63
2021/07/24 12:27:06;;;;;;;;;;;;;;;31.41;31.61;99021.97;1873416;76;20212;-62
2021/07/24 12:29:58;;;;;;;;;;;;;;;31.25;32.22;99016.05;1892722;76;20092;-61
2021/07/24 12:32:47;;;;;;;;;;;;;;;30.96;32.68;99016.34;1892722;76;20208;-61
2021/07/24 12:35:42;;;;;;;;;;;;;;;30.87;32.93;99015.20;1873206;76;20102;-63
2021/07/24 12:38:36;;;;;;;;;;;;;;;30.61;33.05;99021.52;1892674;76;20211;-63
2021/07/24 12:41:33;;;;;;;;;;;;;;;30.16;33.62;99025.06;1873348;76;20351;-64
2021/07/24 12:44:27;;;;;;;;;;;;;;;29.90;34.30;99014.39;1872037;76;20098;-63
2021/07/24 12:49:49;;;;;;;;;;;;;;;29.60;34.65;99018.60;1873328;76;20216;-64
2021/07/24 12:52:32;;;;;;;;;;;;;;;29.49;34.48;99014.45;1873452;76;20093;-64
2021/07/24 12:55:10;;;;;;;;;;;;;;;29.36;34.87;99015.73;1865343;76;20097;-65
2021/07/24 12:58:05;;;;;;;;;;;;;;;29.42;34.56;99018.02;1873372;76;20097;-62
2021/07/24 13:01:09;;;;;;;;;;;;;;;29.57;34.42;99013.02;1873323;76;20208;-67
2021/07/24 13:03:44;;;;;;;;;;;;;;;29.72;34.71;99016.97;1867647;76;20216;-65
2021/07/24 13:06:38;;;;;;;;;;;;;;;29.76;34.19;99015.80;1873289;76;20348;-63
2021/07/24 13:09:14;;;;;;;;;;;;;;;29.74;34.00;99015.92;1892673;76;20097;-63
2021/07/24 13:11:49;;;;;;;;;;;;;;;29.64;33.45;99015.64;1892696;76;20093;-63
2021/07/24 13:14:24;;;;;;;;;;;;;;;29.65;33.28;99017.85;1850471;76;20170;-63
2021/07/24 13:17:02;;;;;;;;;;;;;;;29.74;33.44;99016.37;1840720;76;20365;-64
2021/07/24 13:19:38;;;;;;;;;;;;;;;29.95;33.87;99018.92;1835081;76;20119;-62
2021/07/24 13:22:14;;;;;;;;;;;;;;;30.04;34.87;99024.94;1877182;76;20113;-63
2021/07/24 13:24:54;;;;;;;;;;;;;;;30.08;34.26;99014.46;1864857;76;20107;-64
2021/07/24 13:30:31;;;;;;;;;;;;;;;29.94;34.00;99014.54;1869145;76;20500;-62
2021/07/24 13:33:06;;;;;;;;;;;;;;;29.98;34.22;99016.53;1851706;76;20106;-63
2021/07/24 13:36:00;;;;;;;;;;;;;;;29.82;33.48;99010.92;1846037;76;20111;-62
2021/07/24 13:38:54;;;;;;;;;;;;;;;29.77;33.68;99014.86;1847447;76;20480;-63
2021/07/24 13:41:29;;;;;;;;;;;;;;;29.92;33.31;99015.60;1892729;76;20092;-63
2021/07/24 13:44:04;;;;;;;;;;;;;;;30.03;33.31;99007.27;1870578;76;20097;-65
2021/07/24 13:46:57;;;;;;;;;;;;;;;30.13;33.26;99012.82;1858970;76;20276;-63
2021/07/24 13:49:35;;;;;;;;;;;;;;;30.22;33.10;99007.33;1870036;76;20119;-62
2021/07/24 13:52:11;;;;;;;;;;;;;;;30.22;33.39;99012.16;1843385;76;20115;-63
2021/07/24 13:54:46;;;;;;;;;;;;;;;30.26;33.34;99011.04;1858229;76;20162;-64
2021/07/24 13:57:21;;;;;;;;;;;;;;;30.28;33.13;99008.28;1862415;76;20113;-63
2021/07/24 13:59:55;;;;;;;;;;;;;;;30.27;33.25;99013.21;1853945;76;20325;-63
2021/07/24 14:02:32;;;;;;;;;;;;;;;30.30;33.18;99014.33;1838289;76;20107;-65
2021/07/24 14:05:25;;;;;;;;;;;;;;;30.35;33.17;99010.86;1862767;76;20464;-63
2021/07/24 14:08:06;;;;;;;;;;;;;;;30.38;32.98;99012.45;1841969;76;20324;-63
2021/07/24 14:10:47;;;;;;;;;;;;;;;30.33;32.65;99008.81;1881778;76;20123;-62